Weather observations for the past three days for
Clinton, Clinton Regional Airport
Imperial (Metric)
Date Time (cdt) Wind (mph) Vis. (mi.) Weather Sky Cond. Temperature (ºF) Relative Humidity Wind Chill (°F) Heat Index (°F) Pressure Precipitation (in)
Air Dwpt 6 hour altimeter (in) sea level (mb) 1 hr 3 hr 6 hr
Max. Min.
09 06:55 Calm 10.00 Fair CLR 51.8 46.4 82% 29.88 0.0
09 06:35 Calm 10.00 Fair CLR 50 44.6 82% 29.88 0.0
09 06:15 Calm 10.00 Fair CLR 50 42.8 76% 29.88 0.0
09 05:55 Calm 10.00 Fair CLR 51.8 46.4 82% 29.88 0.0
09 05:35 Calm 10.00 Fair CLR 50 44.6 82% 29.88 0.0
09 05:15 N 5 10.00 Fair CLR 51.8 46.4 82% 29.88 0.0
09 04:55 Calm 10.00 Fair CLR 51.8 46.4 82% 29.88 0.0
09 04:35 NE 7 10.00 Fair CLR 53.6 46.4 77% 29.88 0.0
09 04:15 N 7 10.00 Fair CLR 51.8 44.6 77% 29.89 0.0
09 03:55 NW 5 10.00 Fair CLR 53.6 44.6 72% 29.9 0.0
09 03:35 Calm 10.00 Fair CLR 53.6 44.6 72% 29.9 0.0
09 03:15 N 3 10.00 Fair CLR 55.4 44.6 67% 29.9 0.0
09 02:55 Calm 10.00 Fair CLR 59 46.4 63% 29.91 0.0
09 02:35 E 3 10.00 Fair CLR 59 44.6 59% 29.9 0.0
09 02:15 E 3 10.00 Fair CLR 59 44.6 59% 29.9 0.0
09 01:55 E 3 10.00 Fair CLR 60.8 44.6 55% 29.9 0.0
09 01:35 E 5 10.00 Fair CLR 62.6 44.6 52% 29.9 0.0
09 01:15 E 6 10.00 Fair CLR 62.6 44.6 52% 29.91 0.0
09 00:55 NE 6 10.00 Fair CLR 62.6 42.8 49% 29.9 0.0
09 00:35 E 6 10.00 Fair CLR 66.2 42.8 43% 29.9 0.0
09 00:15 E 6 10.00 Fair CLR 68 42.8 40% 29.9 0.0
08 23:55 E 8 10.00 Fair CLR 68 41 38% 29.89 0.0
08 23:35 NE 13 10.00 Fair CLR 69.8 41 35% 29.88 0.0
08 23:15 NE 16 G 21 10.00 Fair CLR 69.8 41 35% 29.86 0.0
08 22:55 NE 14 10.00 Fair CLR 71.6 41 33% 29.85 0.0
08 22:35 NE 13 10.00 Fair CLR 69.8 41 35% 29.83 0.0
08 22:15 N 5 10.00 Fair CLR 66.2 42.8 43% 29.83 0.0
08 21:55 NE 3 10.00 Fair CLR 66.2 42.8 43% 29.82 0.0
08 21:35 N 8 10.00 Fair CLR 69.8 42.8 38% 29.81 0.0
08 21:15 N 7 10.00 Fair CLR 71.6 41 33% 29.81 0.0
08 20:55 N 9 10.00 Fair CLR 73.4 41 31% 29.8 0.0
08 20:35 N 8 10.00 Fair CLR 78.8 41 26% 78 29.79 0.0
08 20:15 N 13 G 21 10.00 Fair CLR 80.6 39.2 23% 79 29.78 0.0
08 19:55 N 15 10.00 Fair CLR 80.6 37.4 21% 79 29.77 0.0
08 19:35 N 17 G 23 10.00 Fair CLR 82.4 37.4 20% 80 29.77 0.0
08 19:15 N 21 G 28 10.00 Fair and Breezy CLR 82.4 35.6 19% 80 29.76 0.0
08 18:55 N 20 G 25 10.00 Fair CLR 84.2 35.6 18% 81 29.75 0.0
08 18:35 N 17 G 22 10.00 Fair CLR 86 37.4 18% 83 29.75 0.0
08 18:15 N 16 G 20 10.00 Fair CLR 86 42.8 22% 83 29.74 0.0
08 17:55 N 8 10.00 Partly Cloudy SCT095 SCT110 82.4 48.2 30% 81 29.75 0.0
08 17:35 N 5 10.00 Light Rain SCT043 SCT070 SCT095 78.8 50 37% 79 29.75 0.0
08 17:15 W 8 10.00 Partly Cloudy SCT095 SCT120 86 46.4 25% 83 29.74 0.0
08 16:55 SW 12 G 17 10.00 Fair CLR 86 46.4 25% 83 29.74 0.0
08 16:35 SW 12 G 16 10.00 Partly Cloudy SCT080 87.8 48.2 25% 85 29.76 0.0
08 16:15 SW 12 G 18 10.00 Fair CLR 86 48.2 27% 83 29.77 0.0
08 15:55 W 16 10.00 Partly Cloudy SCT070 86 48.2 27% 83 29.78 0.0
08 15:35 W 15 10.00 Partly Cloudy SCT070 SCT080 86 46.4 25% 83 29.79 0.0
08 15:15 W 12 G 20 10.00 Partly Cloudy SCT070 SCT080 86 50 29% 84 29.79 0.0
08 14:55 W 12 G 18 10.00 Partly Cloudy SCT060 82.4 50 32% 81 29.8 0.0
08 14:35 W 10 G 20 10.00 Partly Cloudy SCT060 82.4 51.8 35% 81 29.81 0.0
08 14:15 SW 16 G 23 10.00 Fair CLR 82.4 51.8 35% 81 29.81 0.0
08 13:55 SW 17 G 22 10.00 Partly Cloudy SCT050 80.6 53.6 39% 80 29.82 0.0
08 13:35 SW 15 G 21 10.00 Fair CLR 80.6 53.6 39% 80 29.82 0.0
08 13:15 SW 16 G 25 10.00 Fair CLR 80.6 53.6 39% 80 29.83 0.0
08 12:55 SW 13 G 23 10.00 Fair CLR 78.8 53.6 42% 79 29.84 0.0
08 12:35 SW 16 G 22 10.00 Fair CLR 77 53.6 44% 78 29.86 0.0
08 12:15 SW 15 G 21 10.00 Fair CLR 75.2 53.6 47% 78 29.86 0.0
08 11:55 SW 14 G 21 10.00 Fair CLR 73.4 53.6 50% 29.87 0.0
08 11:35 S 15 G 18 10.00 Fair CLR 71.6 53.6 53% 29.88 0.0
08 11:15 SW 16 G 23 10.00 Partly Cloudy SCT022 71.6 53.6 53% 29.89 0.0
08 10:55 S 14 G 18 10.00 Mostly Cloudy BKN022 69.8 50 50% 29.91 0.0
08 10:35 SW 13 G 16 10.00 Overcast OVC022 68 50 53% 29.91 0.0
08 10:15 SW 13 10.00 Overcast OVC024 66.2 50 56% 29.92 0.0
08 09:55 SW 15 G 18 10.00 Overcast OVC024 66.2 50 56% 29.92 0.0
08 09:35 S 8 10.00 Partly Cloudy SCT024 64.4 50 60% 29.92 0.0
08 09:15 S 12 10.00 Fair CLR 60.8 48.2 63% 29.92 0.0
08 08:55 S 9 10.00 Fair CLR 59 48.2 68% 29.93 0.0
08 08:35 S 8 10.00 Fair CLR 55.4 48.2 77% 29.93 0.0
08 08:15 S 9 10.00 Fair CLR 55.4 48.2 77% 29.92 0.0
08 07:55 S 8 10.00 Fair CLR 53.6 46.4 77% 29.92 0.0
08 07:35 S 7 10.00 Fair CLR 51.8 46.4 82% 29.92 0.0
08 07:15 S 7 10.00 Fair CLR 51.8 46.4 82% 29.93 0.0
08 06:55 S 7 10.00 Fair CLR 51.8 46.4 82% 29.92 0.0
08 06:35 S 7 10.00 Fair CLR 51.8 46.4 82% 29.92 0.0
08 06:15 S 6 10.00 Fair CLR 51.8 46.4 82% 29.92 0.0
08 05:55 S 6 10.00 Fair CLR 51.8 46.4 82% 29.92 0.0
08 05:35 S 6 10.00 Fair CLR 53.6 46.4 77% 29.92 0.0
08 05:15 S 5 10.00 Fair CLR 53.6 46.4 77% 29.92 0.0
08 04:55 S 5 10.00 Fair CLR 53.6 46.4 77% 29.92 0.0
08 04:35 S 7 10.00 Fair CLR 53.6 46.4 77% 29.92 0.0
08 04:15 S 8 10.00 Fair CLR 55.4 46.4 72% 29.92 0.0
08 03:55 S 7 10.00 Fair CLR 53.6 44.6 72% 29.93 0.0
08 03:35 S 6 10.00 Fair CLR 53.6 44.6 72% 29.93 0.0
08 03:15 S 8 10.00 Fair CLR 53.6 44.6 72% 29.93 0.0
08 02:55 S 7 10.00 Fair CLR 53.6 42.8 67% 29.93 0.0
08 02:35 S 8 10.00 Fair CLR 55.4 42.8 63% 29.94 0.0
08 02:15 S 8 10.00 Fair CLR 55.4 42.8 63% 29.94 0.0
08 01:55 S 9 10.00 Fair CLR 55.4 41 59% 29.94 0.0
08 01:35 S 9 10.00 Fair CLR 55.4 39.2 55% 29.95 0.0
08 01:15 S 9 10.00 Fair CLR 55.4 37.4 51% 29.95 0.0
08 00:55 S 9 10.00 Fair CLR 57.2 37.4 48% 29.95 0.0
08 00:35 S 10 10.00 Fair CLR 57.2 35.6 44% 29.95 0.0
08 00:15 S 9 10.00 Fair CLR 59 35.6 42% 29.95 0.0
07 23:55 S 10 10.00 Fair CLR 59 35.6 42% 29.95 0.0
07 23:35 S 9 10.00 Fair CLR 59 35.6 42% 29.95 0.0
07 23:15 S 8 10.00 Fair CLR 60.8 33.8 36% 29.95 0.0
07 22:55 S 9 10.00 Fair CLR 60.8 33.8 36% 29.95 0.0
07 22:35 S 8 10.00 Fair CLR 62.6 33.8 34% 29.94 0.0
07 22:15 S 8 10.00 Fair CLR 62.6 33.8 34% 29.94 0.0
07 21:55 S 8 10.00 Fair CLR 64.4 33.8 32% 29.93 0.0
07 21:35 S 8 10.00 Fair CLR 66.2 33.8 30% 29.93 0.0
07 21:15 S 9 10.00 Fair CLR 68 32 26% 29.93 0.0
07 20:55 S 9 10.00 Fair CLR 69.8 32 25% 29.92 0.0
07 20:35 S 9 10.00 Fair CLR 71.6 32 23% 29.92 0.0
07 20:15 S 9 10.00 Fair CLR 73.4 32 22% 29.91 0.0
07 19:55 S 9 10.00 Fair CLR 75.2 32 21% 76 29.91 0.0
07 19:35 S 10 10.00 Fair CLR 77 32 19% 77 29.91 0.0
07 19:15 S 9 10.00 Fair CLR 77 32 19% 77 29.91 0.0
07 18:55 SW 6 10.00 Fair CLR 77 32 19% 77 29.91 0.0
07 18:35 S 3 10.00 Fair CLR 77 32 19% 77 29.92 0.0
07 18:15 SW 8 10.00 Fair CLR 77 32 19% 77 29.93 0.0
07 17:55 S 5 G 17 10.00 Fair CLR 77 32 19% 77 29.93 0.0
07 17:35 S 6 10.00 Fair CLR 77 32 19% 77 29.93 0.0
07 17:15 SW 8 10.00 Fair CLR 77 32 19% 77 29.94 0.0
07 16:55 W 7 10.00 Fair CLR 77 32 19% 77 29.95 0.0
07 15:55 W 10 10.00 Fair CLR 75.2 32 21% 76 29.99 0.0
07 15:35 W 9 10.00 Fair CLR 73.4 33.8 23% 30 0.0
07 15:15 W 13 G 23 10.00 Fair CLR 71.6 33.8 25% 30.01 0.0
07 14:55 SW 10 G 17 10.00 Fair CLR 71.6 35.6 27% 30.02 0.0
07 14:35 W 8 G 21 10.00 Fair CLR 71.6 35.6 27% 30.03 0.0
07 14:15 W 14 G 25 10.00 Fair CLR 69.8 37.4 31% 30.04 0.0
07 13:35 W 10 G 20 10.00 Fair CLR 68 39.2 35% 30.06 0.0
07 13:15 W 12 G 17 10.00 Fair CLR 66.2 37.4 35% 30.07 0.0
07 12:55 SW 14 G 20 10.00 Fair CLR 66.2 39.2 37% 30.08 0.0
07 12:35 SW 15 G 21 10.00 Fair CLR 64.4 39.2 40% 30.09 0.0
07 12:15 SW 9 G 21 10.00 Fair CLR 62.6 39.2 42% 30.1 0.0
07 11:55 W 12 G 16 10.00 Fair CLR 62.6 39.2 42% 30.11 0.0
07 11:35 W 8 10.00 Fair CLR 60.8 41 48% 30.12 0.0
07 11:15 W 7 10.00 Fair CLR 59 41 51% 30.12 0.0
07 10:55 W 8 10.00 Fair CLR 59 39.2 48% 30.13 0.0
07 10:35 W 8 10.00 Fair CLR 57.2 41 55% 30.14 0.0
07 10:15 W 5 10.00 Fair CLR 55.4 41 59% 30.15 0.0
07 09:55 W 5 10.00 Fair CLR 53.6 42.8 67% 30.15 0.0
07 09:35 NW 7 10.00 Fair CLR 51.8 41 67% 30.16 0.0
07 09:15 NW 6 10.00 Fair CLR 51.8 42.8 72% 30.16 0.0
07 08:55 W 6 10.00 Fair CLR 50 42.8 76% 48 30.17 0.0
07 08:35 NW 7 10.00 Fair CLR 46.4 42.8 87% 43 30.16 0.0
07 08:15 NW 6 10.00 Fair CLR 44.6 42.8 93% 42 30.16 0.0
07 07:55 W 5 10.00 Fair CLR 44.6 41 87% 43 30.16 0.0
07 07:35 W 3 10.00 Fair CLR 42.8 41 93% 30.15 0.0
07 07:15 W 3 10.00 Fair CLR 44.6 41 87% 30.15 0.0
07 06:55 W 6 10.00 Fair CLR 44.6 41 87% 42 30.15 0.0
07 06:35 W 5 10.00 Fair CLR 44.6 39.2 81% 43 30.15 0.0
07 06:15 W 3 10.00 Fair CLR 44.6 39.2 81% 30.15 0.0
07 05:55 Calm 10.00 Fair CLR 44.6 39.2 81% 30.14 0.0
07 05:35 NW 3 10.00 Partly Cloudy SCT110 44.6 39.2 81% 30.14 0.0
07 05:15 NW 5 10.00 Partly Cloudy SCT120 46.4 39.2 76% 45 30.14 0.0
07 04:55 NW 6 10.00 Partly Cloudy SCT120 46.4 39.2 76% 44 30.15 0.0
07 04:35 NW 5 10.00 Fair CLR 46.4 39.2 76% 45 30.14 0.0
07 04:15 Calm 10.00 Partly Cloudy SCT085 SCT120 48.2 37.4 66% 30.13 0.0
07 03:55 N 5 10.00 Light Rain SCT070 SCT085 BKN120 46.4 37.4 71% 45 30.14 0.0
07 03:35 NW 3 10.00 Partly Cloudy SCT110 48.2 35.6 62% 30.13 0.0
07 03:15 Calm 10.00 Mostly Cloudy BKN120 46.4 37.4 71% 30.14 0.0
07 02:55 Calm 10.00 Mostly Cloudy BKN110 46.4 35.6 66% 30.14 0.0
07 02:35 Calm 10.00 Overcast OVC100 46.4 35.6 66% 30.14 0.0
07 02:15 Calm 10.00 Overcast OVC100 48.2 35.6 62% 30.15 0.0
07 01:55 Calm 10.00 Overcast OVC100 48.2 35.6 62% 30.15 0.0
07 01:35 Calm 10.00 Mostly Cloudy BKN110 46.4 35.6 66% 30.15 0.0
07 01:15 Calm 10.00 Fair CLR 48.2 35.6 62% 30.15 0.0
07 00:55 Calm 10.00 Mostly Cloudy BKN065 46.4 35.6 66% 30.15 0.0
07 00:35 N 5 10.00 Overcast OVC065 48.2 35.6 62% 47 30.15 0.0
07 00:15 N 7 10.00 Overcast OVC065 46.4 35.6 66% 43 30.15 0.0
06 23:55 N 7 10.00 Mostly Cloudy BKN065 46.4 35.6 66% 43 30.15 0.0
06 23:35 N 7 10.00 Fair CLR 46.4 35.6 66% 43 30.14 0.0
06 23:15 N 7 10.00 Fair CLR 46.4 35.6 66% 43 30.12 0.0
06 22:55 N 7 10.00 Fair CLR 48.2 33.8 58% 46 30.12 0.0
06 22:35 N 7 10.00 Fair CLR 50 33.8 54% 48 30.12 0.0
06 22:15 NE 6 10.00 Fair CLR 51.8 35.6 54% 30.09 0.0
06 21:55 NE 8 10.00 Fair CLR 53.6 33.8 47% 30.07 0.0
06 21:35 NE 10 10.00 Fair CLR 53.6 33.8 47% 30.07 0.0
06 21:15 NE 12 10.00 Fair CLR 55.4 33.8 44% 30.07 0.0
06 20:55 NE 14 10.00 Fair CLR 57.2 33.8 41% 30.05 0.0
06 20:35 NE 15 10.00 Fair CLR 59 33.8 39% 30.05 0.0
06 20:15 NE 12 10.00 Fair CLR 60.8 33.8 36% 30.04 0.0
06 19:55 NE 13 10.00 Partly Cloudy SCT065 62.6 33.8 34% 30.03 0.0
06 19:35 NE 13 G 20 10.00 Partly Cloudy SCT065 62.6 33.8 34% 30.04 0.0
06 19:15 NE 10 10.00 Fair CLR 62.6 33.8 34% 30.03 0.0
06 18:55 NE 12 10.00 Partly Cloudy SCT060 64.4 33.8 32% 30.03 0.0
06 18:35 E 8 10.00 Mostly Cloudy BKN060 64.4 33.8 32% 30.03 0.0
06 18:15 N 12 10.00 Partly Cloudy SCT060 64.4 33.8 32% 30.03 0.0
06 17:55 N 12 G 16 10.00 Partly Cloudy SCT060 64.4 35.6 34% 30.02 0.0
06 17:35 E 8 10.00 Fair CLR 64.4 35.6 34% 30.02 0.0
06 17:15 E 10 10.00 Fair CLR 64.4 35.6 34% 30.02 0.0
06 16:55 NE 8 G 16 10.00 Fair CLR 62.6 35.6 37% 30.02 0.0
06 16:35 N 10 G 16 10.00 Partly Cloudy SCT110 62.6 35.6 37% 30.03 0.0
06 16:15 NE 12 G 18 10.00 Partly Cloudy SCT049 SCT110 62.6 35.6 37% 30.03 0.0
06 15:55 NE 13 G 17 10.00 Partly Cloudy SCT049 SCT110 62.6 35.6 37% 30.04 0.0
06 15:35 N 8 10.00 Mostly Cloudy BKN049 BKN110 60.8 35.6 39% 30.05 0.0
06 15:15 NE 10 G 24 10.00 Mostly Cloudy BKN047 BKN110 60.8 35.6 39% 30.05 0.0
06 14:55 NE 15 G 18 10.00 Overcast OVC047 60.8 35.6 39% 30.05 0.0
06 14:35 NE 14 G 17 10.00 Overcast OVC047 60.8 35.6 39% 30.05 0.0
06 14:15 NE 14 G 20 10.00 Overcast OVC045 59 35.6 42% 30.06 0.0
06 13:55 NE 12 10.00 Overcast OVC045 59 35.6 42% 30.07 0.0
06 13:35 E 13 G 16 10.00 Overcast OVC045 59 35.6 42% 30.08 0.0
06 13:15 E 8 10.00 Overcast OVC045 59 35.6 42% 30.08 0.0
06 12:55 E 12 G 20 10.00 Mostly Cloudy BKN045 BKN110 59 35.6 42% 30.08 0.0
06 12:15 E 14 G 20 10.00 Mostly Cloudy BKN043 57.2 35.6 44% 30.08 0.0
06 11:55 E 13 G 22 10.00 Partly Cloudy SCT041 55.4 35.6 47% 30.08 0.0
06 11:35 E 16 G 23 10.00 Fair CLR 55.4 35.6 47% 30.07 0.0
06 11:15 E 17 G 24 10.00 Partly Cloudy SCT110 55.4 35.6 47% 30.06 0.0
06 10:55 NE 14 G 23 10.00 Partly Cloudy SCT110 55.4 35.6 47% 30.06 0.0
06 10:35 NE 15 G 25 10.00 Fair CLR 53.6 35.6 51% 30.05 0.0
06 10:15 NE 18 G 25 10.00 Fair CLR 51.8 35.6 54% 30.05 0.0
06 09:55 NE 21 G 25 10.00 Partly Cloudy and Breezy SCT025 51.8 35.6 54% 30.06 0.0
06 09:35 NE 17 G 24 10.00 Mostly Cloudy BKN025 50 37.4 62% 45 30.06 0.0
06 09:15 NE 14 G 22 10.00 Partly Cloudy SCT025 48.2 37.4 66% 43 30.06 0.0
06 08:55 NE 18 10.00 Fair CLR 48.2 37.4 66% 42 30.05 0.0
06 08:35 NE 16 G 21 10.00 Partly Cloudy SCT050 46.4 37.4 71% 40 30.05 0.0
06 08:15 NE 15 10.00 Mostly Cloudy BKN050 46.4 37.4 71% 41 30.05 0.0
06 07:55 NE 9 10.00 Overcast OVC048 46.4 37.4 71% 42 30.05 0.0
06 07:35 NE 12 10.00 Overcast SCT026 SCT031 OVC048 46.4 37.4 71% 42 30.05 0.0
06 07:15 NE 14 10.00 Overcast BKN026 BKN031 OVC048 46.4 37.4 71% 41 30.04 0.0
06 06:55 NE 13 G 17 10.00 Overcast SCT026 OVC046 48.2 37.4 66% 43 30.02 0.0
Date Time (cdt) Wind (mph) Vis. (mi.) Weather Sky Cond. Air Dwpt Max. Min. Relative Humidity Wind Chill (°F) Heat Index (°F) altimeter (in) sea level (mb) 1 hr 3 hr 6 hr
6 hour
Temperature (ºF) Pressure Precipitation (in)